Flight Track Log - Related Links

Times and Time Zones

All times are in EDT time to prevent confusion due to time zone crossing. See the XOJ552 flight status page for this flight to view local times or setup timezone preferences in your user account.

Time Position Orientation Groundspeed Altitude Reporting Facility
EDT Latitude Longitude Course Direction KTS MPH feet Rate Location/Type
Mon 10:41:10 AM 34.1833 -118.4833 48° Northeast 181 208 1,600  Level Southern California TRACON
Mon 10:43:30 AM 34.2228 -118.4311 48° Northeast 259 298 8,200 2,911 Climbing Los Angeles Center
Mon 10:44:32 AM 34.2881 -118.4744 331° Northwest 268 308 11,400 2,976 Climbing Los Angeles Center
Mon 10:45:33 AM 34.3631 -118.4297 26° Northeast 310 357 14,300 2,634 Climbing Los Angeles Center
Mon 10:46:35 AM 34.4369 -118.3592 38° Northeast 336 387 16,800 2,710 Climbing Los Angeles Center
Mon 10:47:37 AM 34.5186 -118.2461 49° Northeast 369 425 19,900 2,537 Climbing Los Angeles Center
Mon 10:48:38 AM 34.5839 -118.1422 53° Northeast 384 442 22,000 1,122 Climbing Los Angeles Center
Mon 10:49:40 AM 34.6331 -118.0300 62° Northeast 425 489 22,200 919 Climbing Los Angeles Center
Mon 10:50:42 AM 34.6553 -117.8922 79° East 423 487 23,900 2,177 Climbing Los Angeles Center
Mon 10:51:44 AM 34.7308 -117.7508 57° Northeast 419 482 26,700 2,341 Climbing Los Angeles Center
Mon 10:52:45 AM 34.7956 -117.6303 57° Northeast 426 490 28,700 2,000 Climbing Los Angeles Center
Mon 10:53:47 AM 34.8614 -117.5081 57° Northeast 436 502 30,800 1,645 Climbing Los Angeles Center
Mon 10:54:49 AM 34.9258 -117.3856 57° Northeast 437 503 32,100 1,452 Climbing Los Angeles Center
Mon 10:55:51 AM 34.9931 -117.2606 57° Northeast 447 514 33,800 1,805 Climbing Los Angeles Center
Mon 10:56:52 AM 35.0719 -117.1119 57° Northeast 438 504 35,800 1,805 Climbing Los Angeles Center
Mon 10:57:54 AM 35.1378 -116.9878 57° Northeast 437 503 37,500 1,366 Climbing Los Angeles Center
Mon 10:58:55 AM 35.2019 -116.8675 57° Northeast 431 496 38,600 1,024 Climbing Los Angeles Center
Mon 10:59:57 AM 35.2631 -116.7464 58° Northeast 425 489 39,600 919 Climbing Los Angeles Center
Mon 11:00:59 AM 35.3272 -116.6250 57° Northeast 425 489 40,500 677 Climbing Los Angeles Center
Mon 11:02:01 AM 35.3894 -116.5028 58° Northeast 425 489 41,000 244 Climbing Los Angeles Center
Mon 11:03:02 AM 35.4678 -116.3544 57° Northeast 432 497 41,000  Level Los Angeles Center
Mon 11:04:04 AM 35.5344 -116.2244 58° Northeast 445 512 41,000  Level Los Angeles Center
Mon 11:05:06 AM 35.6025 -116.0922 58° Northeast 455 524 41,000  Level Los Angeles Center
Mon 11:06:08 AM 35.6706 -115.9603 58° Northeast 458 527 41,000  Level Los Angeles Center
Mon 11:07:10 AM 35.7433 -115.8236 57° Northeast 455 524 41,000  Level Los Angeles Center
Mon 11:08:11 AM 35.8103 -115.6928 58° Northeast 452 520 41,000  Level Los Angeles Center
Mon 11:09:13 AM 35.8783 -115.5592 58° Northeast 460 529 41,000  Level Los Angeles Center
Mon 11:10:15 AM 35.9589 -115.3986 58° Northeast 462 532 41,000  Level Los Angeles Center
Mon 11:11:16 AM 36.0128 -115.2922 58° Northeast 462 532 41,000  Level Los Angeles Center
Mon 11:12:18 AM 36.0994 -115.1358 56° Northeast 463 533 41,000  Level Los Angeles Center
Mon 11:13:20 AM 36.1878 -115.0208 46° Northeast 465 535 41,000  Level Los Angeles Center
Mon 11:14:22 AM 36.2544 -114.8881 58° Northeast 461 531 41,000  Level Los Angeles Center
Mon 11:15:24 AM 36.3214 -114.7517 59° Northeast 463 533 41,000  Level Los Angeles Center
Mon 11:16:26 AM 36.3997 -114.5894 59° Northeast 460 529 41,000  Level Los Angeles Center
Mon 11:17:28 AM 36.4653 -114.4525 59° Northeast 462 532 41,000  Level Los Angeles Center
Mon 11:18:30 AM 36.5314 -114.3164 59° Northeast 461 531 41,000  Level Los Angeles Center
Mon 11:19:32 AM 36.5975 -114.1786 59° Northeast 460 529 41,000  Level Los Angeles Center
Mon 11:20:34 AM 36.6625 -114.0433 59° Northeast 459 528 41,000  Level Los Angeles Center
Mon 11:21:36 AM 36.7267 -113.9050 60° Northeast 462 532 41,000  Level Los Angeles Center
Mon 11:22:38 AM 36.8058 -113.7428 59° Northeast 458 527 41,000  Level Los Angeles Center
Mon 11:23:39 AM 36.8700 -113.6039 60° Northeast 460 529 41,000  Level Los Angeles Center
Mon 11:24:41 AM 36.9361 -113.4658 59° Northeast 463 533 41,000  Level Los Angeles Center
Mon 11:25:43 AM 37.0014 -113.3253 60° Northeast 467 537 41,000  Level Los Angeles Center
Mon 11:26:57 AM 37.0653 -113.1858 60° Northeast 466 536 41,000  Level Los Angeles Center
Mon 11:28:00 AM 37.1428 -113.0161 60° Northeast 470 541 41,000  Level Los Angeles Center
Mon 11:29:02 AM 37.2200 -112.8492 60° Northeast 466 536 41,000  Level Los Angeles Center
Mon 11:30:04 AM 37.2833 -112.7103 60° Northeast 464 534 41,000  Level Los Angeles Center
Mon 11:31:06 AM 37.3469 -112.5706 60° Northeast 466 536 41,000  Level Los Angeles Center
Mon 11:32:08 AM 37.4103 -112.4311 60° Northeast 464 534 41,000  Level Los Angeles Center
Mon 11:33:10 AM 37.4853 -112.2650 60° Northeast 460 529 41,000  Level Los Angeles Center
Mon 11:34:11 AM 37.5464 -112.1278 61° Northeast 457 526 41,000  Level Salt Lake Center
Mon 11:35:13 AM 37.6083 -111.9911 60° Northeast 453 521 41,000  Level Salt Lake Center
Mon 11:36:15 AM 37.6692 -111.8528 61° Northeast 453 521 41,000  Level Salt Lake Center
Mon 11:37:17 AM 37.7314 -111.7150 60° Northeast 454 522 41,000  Level Salt Lake Center
Mon 11:38:19 AM 37.7922 -111.5767 61° Northeast 453 521 41,000  Level Salt Lake Center
Mon 11:39:21 AM 37.8664 -111.4097 61° Northeast 455 524 41,000  Level Salt Lake Center
Mon 11:40:10 AM 37.9150 -111.2972 61° Northeast 455 524 41,000  Level Denver Center
Mon 11:41:12 AM 37.9761 -111.1561 61° Northeast 458 527 41,000  Level Denver Center
Mon 11:42:14 AM 38.0378 -111.0144 61° Northeast 460 529 41,000  Level Denver Center
Mon 11:43:16 AM 38.1058 -110.8564 61° Northeast 460 529 41,000  Level Denver Center
Mon 11:44:18 AM 38.1653 -110.7189 61° Northeast 465 535 41,000  Level Denver Center
Mon 11:45:20 AM 38.2333 -110.5608 61° Northeast 458 527 41,000  Level Denver Center
Mon 11:46:22 AM 38.2917 -110.4244 61° Northeast 458 527 41,000  Level Denver Center
Mon 11:47:24 AM 38.3581 -110.2650 62° Northeast 456 525 41,000  Level Denver Center
Mon 11:48:26 AM 38.4156 -110.1283 62° Northeast 458 527 41,000  Level Denver Center
Mon 11:49:28 AM 38.4739 -109.9908 62° Northeast 460 529 41,000  Level Denver Center
Mon 11:50:30 AM 38.5403 -109.8308 62° Northeast 459 528 41,000  Level Denver Center
Mon 11:51:33 AM 38.5978 -109.6950 62° Northeast 455 524 41,000  Level Denver Center
Mon 11:52:35 AM 38.6633 -109.5319 63° Northeast 461 531 41,000  Level Denver Center
Mon 11:53:37 AM 38.7200 -109.3936 62° Northeast 459 528 41,000  Level Denver Center
Mon 11:54:39 AM 38.7853 -109.2325 62° Northeast 459 528 41,000  Level Denver Center
Mon 11:55:41 AM 38.8428 -109.0964 61° Northeast 455 524 41,000  Level Denver Center
Mon 11:56:43 AM 38.9069 -108.9367 63° Northeast 454 522 41,000  Level Denver Center
Mon 11:57:45 AM 38.9636 -108.8003 62° Northeast 454 522 41,000  Level Denver Center
Mon 11:58:47 AM 39.0281 -108.6392 63° Northeast 455 524 41,000  Level Denver Center
Mon 11:59:49 AM 39.0842 -108.5014 62° Northeast 456 525 41,000  Level Denver Center
Mon 12:00:51 PM 39.1486 -108.3394 63° Northeast 444 511 41,000 258 Level Denver Center
Mon 12:02:00 PM 39.1851 -108.1506 73° East  Level FlightAware Approximate
Mon 12:02:55 PM 39.2375 -108.0153 73° East 465 535 41,800  Level Denver Center
Mon 12:03:57 PM 39.2728 -107.8622 73° East 467 537 42,400 629 Climbing Denver Center
Mon 12:04:59 PM 39.3122 -107.6864 74° East 461 531 43,100 629 Climbing Denver Center
Mon 12:06:01 PM 39.3458 -107.5375 74° East 454 522 43,700 576 Climbing Denver Center
Mon 12:07:04 PM 39.3853 -107.3661 73° East 447 514 44,300 432 Climbing Denver Center
Mon 12:08:06 PM 39.4161 -107.2203 75° East 442 509 44,600 290 Climbing Denver Center
Mon 12:09:08 PM 39.4553 -107.0506 73° East 443 510 44,900 194 Climbing Denver Center
Mon 12:10:10 PM 39.4833 -106.9056 76° East 437 503 45,000 48 Climbing Denver Center
Mon 12:11:12 PM 39.5239 -106.7317 73° East 449 517 45,000  Level Denver Center
Mon 12:12:14 PM 39.5569 -106.5803 74° East 456 525 45,000  Level Denver Center
Mon 12:13:16 PM 39.5906 -106.4256 74° East 458 527 45,000  Level Denver Center
Mon 12:14:18 PM 39.6250 -106.2656 74° East 460 529 45,000  Level Denver Center
Mon 12:15:20 PM 39.6611 -106.0972 74° East 462 532 45,000  Level Denver Center
Mon 12:16:22 PM 39.7031 -105.9019 74° East 468 539 45,000  Level Denver Center
Mon 12:17:24 PM 39.7378 -105.7372 75° East 474 545 45,000  Level Denver Center
Mon 12:18:26 PM 39.7706 -105.5733 75° East 468 539 45,000  Level Denver Center
Mon 12:19:28 PM 39.8025 -105.4086 76° East 470 541 45,000  Level Denver Center
Mon 12:20:30 PM 39.8369 -105.2425 75° East 472 543 45,000  Level Denver Center
Mon 12:21:33 PM 39.8717 -105.0625 76° East 470 541 45,000  Level Denver Center
Mon 12:22:35 PM 39.9075 -104.8861 75° East 468 539 45,000  Level Denver Center
Mon 12:23:37 PM 39.9414 -104.7156 75° East 463 533 45,000  Level Denver Center
Mon 12:24:39 PM 39.9744 -104.5456 76° East 476 548 45,000  Level Denver Center
Mon 12:25:41 PM 40.0072 -104.3781 76° East 472 543 45,000  Level Denver Center
Mon 12:26:43 PM 40.0378 -104.2153 76° East 466 536 45,000  Level Denver Center
Mon 12:27:45 PM 40.0689 -104.0475 76° East 470 541 45,000  Level Denver Center
Mon 12:28:47 PM 40.0997 -103.8850 76° East 462 532 45,000  Level Denver Center
Mon 12:29:49 PM 40.1297 -103.7206 77° East 459 528 45,000  Level Denver Center
Mon 12:30:51 PM 40.1686 -103.5233 75° East 467 537 45,000  Level Denver Center
Mon 12:31:53 PM 40.1992 -103.3578 76° East 470 541 45,000  Level Denver Center
Mon 12:32:55 PM 40.2303 -103.1911 76° East 472 543 45,000  Level Denver Center
Mon 12:33:57 PM 40.2589 -103.0261 77° East 467 537 45,000  Level Denver Center
Mon 12:35:00 PM 40.2894 -102.8600 76° East 469 540 45,000  Level Denver Center
Mon 12:36:02 PM 40.3233 -102.6653 77° East 470 541 45,000  Level Denver Center
Mon 12:37:04 PM 40.3519 -102.5067 77° East 469 540 45,000  Level Denver Center
Mon 12:38:06 PM 40.3842 -102.3208 77° East 469 540 45,000  Level Denver Center
Mon 12:39:08 PM 40.4131 -102.1603 77° East 472 543 45,000  Level Denver Center
Mon 12:40:10 PM 40.4447 -101.9725 77° East 473 544 45,000  Level Denver Center
Mon 12:41:12 PM 40.4714 -101.8106 78° East 475 547 45,000  Level Denver Center
Mon 12:42:14 PM 40.5036 -101.6206 77° East 478 550 45,000  Level Denver Center
Mon 12:43:16 PM 40.5308 -101.4575 78° East 478 550 45,000  Level Denver Center
Mon 12:44:18 PM 40.5581 -101.2928 78° East 482 555 45,000  Level Denver Center
Mon 12:45:20 PM 40.5892 -101.1022 78° East 481 554 45,000  Level Denver Center
Mon 12:46:22 PM 40.6153 -100.9381 78° East 482 555 45,000  Level Denver Center
Mon 12:47:24 PM 40.6464 -100.7478 78° East 481 554 45,000  Level Denver Center
Mon 12:48:26 PM 40.6767 -100.5581 78° East 484 557 45,000  Level Denver Center
Mon 12:49:28 PM 40.7031 -100.3961 78° East 479 551 45,000  Level Denver Center
Mon 12:50:30 PM 40.7322 -100.2039 79° East 481 554 45,000  Level Denver Center
Mon 12:51:32 PM 40.7578 -100.0392 78° East 481 554 45,000  Level Denver Center
Mon 12:52:35 PM 40.7869 -99.8450 79° East 484 557 45,000  Level Denver Center
Mon 12:53:37 PM 40.8133 -99.6722 79° East 484 557 45,000  Level Denver Center
Mon 12:54:39 PM 40.8397 -99.4969 79° East 486 559 45,000  Level Denver Center
Mon 12:55:41 PM 40.8647 -99.3225 79° East 486 559 45,000  Level Denver Center
Mon 12:56:43 PM 40.8942 -99.1194 79° East 487 560 45,000  Level Denver Center
Mon 12:57:46 PM 40.9156 -98.9653 80° East 488 562 45,000  Level Minneapolis Center
Mon 12:58:48 PM 40.9397 -98.7878 80° East 490 564 45,000  Level Minneapolis Center
Mon 12:59:51 PM 40.9711 -98.5744 79° East 492 566 45,000  Level Minneapolis Center
Mon 01:00:53 PM 40.9928 -98.4150 80° East 490 564 45,000  Level Minneapolis Center
Mon 01:01:55 PM 41.0217 -98.2036 80° East 489 563 45,000  Level Minneapolis Center
Mon 01:02:57 PM 41.0453 -98.0253 80° East 492 566 45,000  Level Minneapolis Center
Mon 01:03:59 PM 41.0692 -97.8453 80° East 495 570 45,000  Level Minneapolis Center
Mon 01:05:01 PM 41.0928 -97.6664 80° East 495 570 45,000  Level Minneapolis Center
Mon 01:06:03 PM 41.1161 -97.4872 80° East 494 568 45,000  Level Minneapolis Center
Mon 01:07:05 PM 41.1408 -97.2881 81° East 495 570 45,000  Level Minneapolis Center
Mon 01:08:07 PM 41.1642 -97.1081 80° East 496 571 45,000  Level Minneapolis Center
Mon 01:09:09 PM 41.1864 -96.9283 81° East 494 568 45,000  Level Minneapolis Center
Mon 01:10:11 PM 41.2100 -96.7497 80° East 493 567 45,000  Level Minneapolis Center
Mon 01:11:13 PM 41.2356 -96.5289 81° East 501 577 45,000  Level Minneapolis Center
Mon 01:12:15 PM 41.2583 -96.3483 80° East 500 575 45,000  Level Minneapolis Center
Mon 01:13:17 PM 41.2767 -96.1839 82° East 499 574 45,000  Level Minneapolis Center
Mon 01:14:19 PM 41.3022 -95.9647 81° East 500 575 45,000  Level Minneapolis Center
Mon 01:15:21 PM 41.3231 -95.7817 81° East 500 575 45,000  Level Minneapolis Center
Mon 01:16:24 PM 41.3436 -95.5972 81° East 499 574 45,000  Level Minneapolis Center
Mon 01:17:27 PM 41.3633 -95.4133 82° East 500 575 45,000  Level Minneapolis Center
Mon 01:18:29 PM 41.3836 -95.2289 82° East 503 579 45,000  Level Minneapolis Center
Mon 01:19:31 PM 41.4056 -95.0447 81° East 504 580 45,000  Level Minneapolis Center
Mon 01:20:33 PM 41.4289 -94.8219 82° East 506 582 45,000  Level Minneapolis Center
Mon 01:21:35 PM 41.4472 -94.6356 82° East 507 583 45,000  Level Minneapolis Center
Mon 01:22:37 PM 41.4658 -94.4486 82° East 508 585 45,000  Level Minneapolis Center
Mon 01:23:39 PM 41.4856 -94.2617 82° East 509 586 45,000  Level Minneapolis Center
Mon 01:24:41 PM 41.5014 -94.0822 83° East 506 582 45,000  Level Minneapolis Center
Mon 01:25:43 PM 41.5200 -93.8942 82° East 510 587 45,000  Level Minneapolis Center
Mon 01:26:45 PM 41.5425 -93.6675 82° East 515 593 45,000  Level Minneapolis Center
Mon 01:27:47 PM 41.5608 -93.4778 83° East 517 595 45,000  Level Minneapolis Center
Mon 01:28:49 PM 41.5794 -93.2872 82° East 520 598 45,000  Level Minneapolis Center
Mon 01:29:51 PM 41.5956 -93.0986 83° East 516 594 45,000  Level Minneapolis Center
Mon 01:30:53 PM 41.6119 -92.9092 83° East 514 592 45,000  Level Minneapolis Center
Mon 01:31:55 PM 41.6319 -92.6797 83° East 518 596 45,000  Level Minneapolis Center
Mon 01:32:54 PM 41.6456 -92.5236 83° East 519 597 45,000  Level Chicago Center
Mon 01:33:56 PM 41.6647 -92.2972 83° East 516 594 45,000  Level Chicago Center
Mon 01:34:58 PM 41.6811 -92.1086 83° East 518 596 45,000  Level Chicago Center
Mon 01:36:00 PM 41.6947 -91.9183 84° East 518 596 45,000  Level Chicago Center
Mon 01:37:02 PM 41.7100 -91.7292 84° East 519 597 45,000  Level Chicago Center
Mon 01:38:04 PM 41.7244 -91.5400 84° East 516 594 45,000  Level Chicago Center
Mon 01:39:06 PM 41.7417 -91.3111 84° East 521 600 45,000  Level Chicago Center
Mon 01:40:08 PM 41.7550 -91.1214 85° East 520 598 45,000  Level Chicago Center
Mon 01:41:10 PM 41.7686 -90.9286 85° East 525 604 45,000  Level Chicago Center
Mon 01:42:13 PM 41.7822 -90.7383 84° East 522 601 45,000  Level Chicago Center
Mon 01:43:15 PM 41.7975 -90.5078 85° East 524 603 45,000  Level Chicago Center
Mon 01:44:17 PM 41.8083 -90.3175 86° East 520 598 45,000  Level Chicago Center
Mon 01:45:19 PM 41.8231 -90.1219 84° East 526 605 45,000  Level Chicago Center
Mon 01:46:21 PM 41.8356 -89.9286 85° East 528 608 45,000  Level Chicago Center
Mon 01:47:23 PM 41.8461 -89.7386 86° East 517 595 45,000  Level Chicago Center
Mon 01:48:25 PM 41.8606 -89.5028 85° East 528 608 45,000  Level Chicago Center
Mon 01:49:27 PM 41.8717 -89.3058 86° East 530 610 45,000  Level Chicago Center
Mon 01:50:29 PM 41.8811 -89.1111 86° East 526 605 45,000  Level Chicago Center
Mon 01:51:31 PM 41.8919 -88.9133 86° East 532 612 45,000  Level Chicago Center
Mon 01:52:34 PM 41.9025 -88.7169 86° East 529 609 45,000  Level Chicago Center
Mon 01:53:36 PM 41.9128 -88.5183 86° East 533 613 45,000  Level Chicago Center
Mon 01:54:38 PM 41.9236 -88.2811 86° East 532 612 45,000  Level Chicago Center
Mon 01:55:40 PM 41.9325 -88.0817 87° East 531 611 45,000  Level Chicago Center
Mon 01:56:42 PM 41.9408 -87.8811 87° East 535 616 45,000  Level Chicago Center
Mon 01:57:44 PM 41.9500 -87.6811 86° East 535 616 45,000  Level Chicago Center
Mon 01:58:46 PM 41.9583 -87.4831 87° East 533 613 45,000  Level Chicago Center
Mon 01:59:48 PM 41.9644 -87.2817 88° East 538 619 45,000  Level Chicago Center
Mon 02:00:50 PM 41.9747 -87.0431 87° East 536 617 45,000  Level Chicago Center
Mon 02:01:52 PM 41.9814 -86.8436 87° East 536 617 45,000  Level Chicago Center
Mon 02:02:54 PM 41.9869 -86.6628 88° East 535 616 45,000  Level Chicago Center
Mon 02:03:56 PM 41.9939 -86.4636 87° East 536 617 45,000  Level Chicago Center
Mon 02:04:58 PM 42.0000 -86.2236 88° East 536 617 45,000  Level Chicago Center
Mon 02:06:00 PM 42.0058 -86.0244 88° East 534 615 45,000  Level Chicago Center
Mon 02:07:02 PM 42.0111 -85.8231 88° East 536 617 45,000  Level Chicago Center
Mon 02:08:04 PM 42.0158 -85.6250 88° East 539 620 45,000  Level Chicago Center
Mon 02:09:06 PM 42.0211 -85.4258 88° East 538 619 45,000  Level Chicago Center
Mon 02:10:08 PM 42.0256 -85.2236 88° East 544 626 45,000  Level Chicago Center
Mon 02:11:10 PM 42.0308 -84.9814 88° East 544 626 45,000  Level Chicago Center
Mon 02:12:12 PM 42.0342 -84.7806 89° East 541 623 45,000  Level Chicago Center
Mon 02:13:14 PM 42.0375 -84.5789 89° East 543 625 45,000  Level Chicago Center
Mon 02:14:20 PM 42.0397 -84.3603 89° East 540 621 45,000  Level Cleveland Center
Mon 02:15:22 PM 42.0406 -84.1400 90° East 537 618 45,000  Level Cleveland Center
Mon 02:16:24 PM 42.0397 -83.9408 90° East 537 618 45,000  Level Cleveland Center
Mon 02:17:26 PM 42.0392 -83.7431 90° East 536 617 45,000  Level Cleveland Center
Mon 02:18:28 PM 42.0378 -83.5344 90° East 534 615 45,000  Level Cleveland Center
Mon 02:19:30 PM 42.0361 -83.3333 91° East 533 613 45,000  Level Cleveland Center
Mon 02:20:32 PM 42.0347 -83.1150 90° East 534 615 45,000  Level Cleveland Center
Mon 02:21:34 PM 42.0322 -82.9172 91° East 534 615 45,000  Level Cleveland Center
Mon 02:22:36 PM 42.0294 -82.7192 91° East 533 613 45,000  Level Cleveland Center
Mon 02:23:38 PM 42.0275 -82.5206 91° East 534 615 45,000  Level Cleveland Center
Mon 02:24:40 PM 42.0233 -82.2800 91° East 539 620 45,000  Level Cleveland Center
Mon 02:25:43 PM 42.0197 -82.0856 91° East 537 618 45,000  Level Cleveland Center
Mon 02:26:45 PM 42.0153 -81.8817 92° East 540 621 45,000  Level Cleveland Center
Mon 02:27:47 PM 42.0111 -81.6753 91° East 544 626 45,000  Level Cleveland Center
Mon 02:28:49 PM 42.0067 -81.4711 92° East 542 624 45,000  Level Cleveland Center
Mon 02:29:51 PM 42.0014 -81.2650 92° East 544 626 45,000  Level Cleveland Center
Mon 02:30:53 PM 41.9950 -81.0250 92° East 543 625 45,000  Level Cleveland Center
Mon 02:31:55 PM 41.9822 -80.8197 95° East 545 627 45,000  Level Cleveland Center
Mon 02:32:57 PM 41.9683 -80.6150 95° East 545 627 45,000  Level Cleveland Center
Mon 02:33:59 PM 41.9544 -80.4114 95° East 544 626 45,000  Level Cleveland Center
Mon 02:35:01 PM 41.9406 -80.2097 95° East 539 620 45,000  Level Cleveland Center
Mon 02:36:03 PM 41.9253 -80.0053 96° East 544 626 45,000  Level Cleveland Center
Mon 02:37:05 PM 41.9097 -79.8022 96° East 543 625 45,000  Level Cleveland Center
Mon 02:38:07 PM 41.8950 -79.5992 95° East 539 620 45,000  Level Cleveland Center
Mon 02:39:09 PM 41.8767 -79.3617 96° East 537 618 45,000  Level Cleveland Center
Mon 02:40:11 PM 41.8600 -79.1661 96° East 542 624 45,000 -48 Level Cleveland Center
Mon 02:41:13 PM 41.8439 -78.9667 96° East 541 623 44,900 -726 Descending Cleveland Center
Mon 02:42:15 PM 41.8267 -78.7639 96° East 534 615 43,500 -1,440 Descending Cleveland Center
Mon 02:43:18 PM 41.8100 -78.5614 96° East 544 626 41,900 -1,680 Descending Cleveland Center
Mon 02:44:20 PM 41.7925 -78.3572 96° East 550 633 40,000 -2,226 Descending Cleveland Center
Mon 02:45:22 PM 41.7706 -78.1136 97° East 550 633 37,300 -2,419 Descending Cleveland Center
Mon 02:46:24 PM 41.7525 -77.9125 97° East 547 629 35,000 -1,353 Descending Cleveland Center
Mon 02:47:04 PM 41.7428 -77.7961 96° East 544 626 35,000  Level New York Center
Mon 02:48:04 PM 41.7211 -77.5964 98° East 544 626 35,000  Level New York Center
Mon 02:49:04 PM 41.7014 -77.3917 97° East 549 632 35,000 -650 Level New York Center
Mon 02:50:04 PM 41.6811 -77.1922 98° East 544 626 33,700 -1,550 Descending New York Center
Mon 02:51:04 PM 41.6392 -77.0022 106° East 539 620 31,900 -1,900 Descending New York Center
Mon 02:52:04 PM 41.5881 -76.8200 111° Southeast 533 613 29,900 -2,100 Descending New York Center
Mon 02:53:04 PM 41.5386 -76.6436 110° East 521 600 27,700 -2,100 Descending New York Center
Mon 02:54:04 PM 41.4872 -76.4592 110° East 521 600 25,700 -2,000 Descending New York Center
Mon 02:55:04 PM 41.4397 -76.2725 109° East 514 592 23,700 -1,850 Descending New York Center
Mon 02:56:04 PM 41.3911 -76.1081 111° Southeast 501 577 22,000 -1,750 Descending New York Center
Mon 02:57:04 PM 41.3481 -75.9500 110° East 468 539 20,200 -1,650 Descending New York Center
Mon 02:58:04 PM 41.3025 -75.8000 112° Southeast 454 522 18,700 -1,300 Descending New York Center
Mon 02:59:04 PM 41.2606 -75.6561 111° Southeast 433 498 17,600 -1,750 Descending New York Center
Mon 03:00:04 PM 41.2161 -75.5206 114° Southeast 400 460 15,200 -2,250 Descending New York Center
Mon 03:01:04 PM 41.1733 -75.3936 114° Southeast 382 440 13,100 -1,950 Descending New York Center
Mon 03:02:04 PM 41.1378 -75.2892 114° Southeast 358 412 11,300 -1,800 Descending New York Center
Mon 03:03:04 PM 41.1022 -75.1794 113° Southeast 336 387 9,500 -1,850 Descending New York Center
Mon 03:04:04 PM 41.0647 -75.0697 114° Southeast 309 356 7,600 -1,650 Descending New York Center
Mon 03:05:04 PM 41.0389 -74.9772 110° East 284 327 6,200 -800 Descending New York Center
Mon 03:06:04 PM 41.0358 -74.8808 92° East 268 308 6,000 -800 Descending New York Center
Mon 03:07:04 PM 41.0356 -74.7733 90° East 268 308 4,600 -1,000 Descending New York Center
Mon 03:08:04 PM 41.0342 -74.6825 91° East 273 314 4,000 -300 Descending New York Center
Mon 03:09:04 PM 41.0336 -74.5753 90° East 268 308 4,000 -50 Level New York Center
Mon 03:10:04 PM 41.0319 -74.4981 92° East 251 289 3,900 -500 Descending New York Center
Mon 03:11:04 PM 41.0303 -74.4156 92° East 215 247 3,000 -568 Descending New York Center
Mon 03:11:39 PM 41.0333 -74.3667 85° East 196 226 3,000  Level New York TRACON
Mon 03:12:39 PM 41.0333 -74.3000 90° East 193 222 3,000  Level New York TRACON
Mon 03:13:39 PM 41.0333 -74.2333 90° East 197 227 3,000 -200 Level New York TRACON
Mon 03:14:39 PM 41.0333 -74.1667 90° East 191 220 2,600 -500 Descending New York TRACON
Mon 03:15:39 PM 41.0167 -74.1000 108° East 198 228 2,000 -300 Descending New York TRACON
Mon 03:16:39 PM 40.9833 -74.0500 131° Southeast 186 214 2,000 -200 Level New York TRACON
Mon 03:17:39 PM 40.9333 -74.0500 180° South 152 175 1,600 -550 Descending New York TRACON
Mon 03:18:39 PM 40.9000 -74.0500 180° South 127 146 900 -700 Descending New York TRACON
Mon 03:20:00 PM 40.8500 -74.0500 167° South  Level FlightAware Approximate
Mon 03:27:00 PM 40.8501 -74.0608 167° South  Level Estimated
Mon 03:28:00 PM 40.8501 -74.0608 167° South  Level Estimated

Login

Don't have an account? Register now (free) for customized features, flight alerts, and more!